sensor_id;sensor_type;location;lat;lon;timestamp;temperature;humidity
32965;DHT22;19317;48.226;11.686;2023-05-02T00:03:17;10.00;99.90
32965;DHT22;19317;48.226;11.686;2023-05-02T00:08:08;10.00;99.90
32965;DHT22;19317;48.226;11.686;2023-05-02T00:12:58;10.00;99.90
32965;DHT22;19317;48.226;11.686;2023-05-02T00:17:49;10.00;99.90
32965;DHT22;19317;48.226;11.686;2023-05-02T00:22:39;10.00;99.90
32965;DHT22;19317;48.226;11.686;2023-05-02T00:27:30;10.00;99.90
32965;DHT22;19317;48.226;11.686;2023-05-02T00:32:21;9.90;99.90
32965;DHT22;19317;48.226;11.686;2023-05-02T00:37:11;9.90;99.90
32965;DHT22;19317;48.226;11.686;2023-05-02T00:42:01;9.80;99.90
32965;DHT22;19317;48.226;11.686;2023-05-02T00:46:55;9.80;99.90
32965;DHT22;19317;48.226;11.686;2023-05-02T00:51:46;9.80;99.90
32965;DHT22;19317;48.226;11.686;2023-05-02T00:56:37;9.70;99.90
32965;DHT22;19317;48.226;11.686;2023-05-02T01:12:18;9.60;99.90
32965;DHT22;19317;48.226;11.686;2023-05-02T01:17:13;9.50;99.90
32965;DHT22;19317;48.226;11.686;2023-05-02T01:22:07;9.50;99.90
32965;DHT22;19317;48.226;11.686;2023-05-02T01:27:10;9.50;99.90
32965;DHT22;19317;48.226;11.686;2023-05-02T01:32:07;9.40;99.90
32965;DHT22;19317;48.226;11.686;2023-05-02T01:36:58;9.40;99.90
32965;DHT22;19317;48.226;11.686;2023-05-02T01:41:52;9.40;99.90
32965;DHT22;19317;48.226;11.686;2023-05-02T01:46:44;9.40;99.90
32965;DHT22;19317;48.226;11.686;2023-05-02T01:51:40;9.40;99.90
32965;DHT22;19317;48.226;11.686;2023-05-02T01:56:35;9.30;99.90
32965;DHT22;19317;48.226;11.686;2023-05-02T02:01:27;9.40;99.90
32965;DHT22;19317;48.226;11.686;2023-05-02T02:06:20;9.30;99.90
32965;DHT22;19317;48.226;11.686;2023-05-02T02:11:12;9.30;99.90
32965;DHT22;19317;48.226;11.686;2023-05-02T02:16:05;9.30;99.90
32965;DHT22;19317;48.226;11.686;2023-05-02T02:20:58;9.20;99.90
32965;DHT22;19317;48.226;11.686;2023-05-02T02:25:50;9.20;99.90
32965;DHT22;19317;48.226;11.686;2023-05-02T02:30:41;9.10;99.90
32965;DHT22;19317;48.226;11.686;2023-05-02T02:35:37;9.20;99.90
32965;DHT22;19317;48.226;11.686;2023-05-02T02:40:43;9.10;99.90
32965;DHT22;19317;48.226;11.686;2023-05-02T02:46:01;9.20;99.90
32965;DHT22;19317;48.226;11.686;2023-05-02T02:51:10;9.10;99.90
32965;DHT22;19317;48.226;11.686;2023-05-02T02:56:05;9.10;99.90
32965;DHT22;19317;48.226;11.686;2023-05-02T03:01:02;9.10;99.90
32965;DHT22;19317;48.226;11.686;2023-05-02T03:05:57;9.10;99.90
32965;DHT22;19317;48.226;11.686;2023-05-02T03:10:48;9.00;99.90
32965;DHT22;19317;48.226;11.686;2023-05-02T03:20:43;9.00;99.90
32965;DHT22;19317;48.226;11.686;2023-05-02T03:25:34;8.90;99.90
32965;DHT22;19317;48.226;11.686;2023-05-02T03:30:25;8.90;99.90
32965;DHT22;19317;48.226;11.686;2023-05-02T03:35:15;8.90;99.90
32965;DHT22;19317;48.226;11.686;2023-05-02T03:40:06;8.90;99.90
32965;DHT22;19317;48.226;11.686;2023-05-02T03:44:57;8.80;99.90
32965;DHT22;19317;48.226;11.686;2023-05-02T03:49:47;8.80;99.90
32965;DHT22;19317;48.226;11.686;2023-05-02T03:54:37;8.90;99.90
32965;DHT22;19317;48.226;11.686;2023-05-02T03:59:28;8.70;99.90
32965;DHT22;19317;48.226;11.686;2023-05-02T04:04:21;8.70;99.90
32965;DHT22;19317;48.226;11.686;2023-05-02T04:09:11;8.70;99.90
32965;DHT22;19317;48.226;11.686;2023-05-02T04:14:02;8.70;99.90
32965;DHT22;19317;48.226;11.686;2023-05-02T04:18:52;8.70;99.90
32965;DHT22;19317;48.226;11.686;2023-05-02T04:23:43;8.70;99.90
32965;DHT22;19317;48.226;11.686;2023-05-02T04:28:34;8.70;99.90
32965;DHT22;19317;48.226;11.686;2023-05-02T04:33:25;8.70;99.90
32965;DHT22;19317;48.226;11.686;2023-05-02T04:38:15;8.70;99.90
32965;DHT22;19317;48.226;11.686;2023-05-02T04:43:06;8.70;99.90
32965;DHT22;19317;48.226;11.686;2023-05-02T04:47:56;8.70;99.90
32965;DHT22;19317;48.226;11.686;2023-05-02T04:52:46;8.80;99.90
32965;DHT22;19317;48.226;11.686;2023-05-02T04:57:37;8.80;99.90
32965;DHT22;19317;48.226;11.686;2023-05-02T05:02:27;8.80;99.90
32965;DHT22;19317;48.226;11.686;2023-05-02T05:07:18;8.80;99.90
32965;DHT22;19317;48.226;11.686;2023-05-02T05:12:08;8.90;99.90
32965;DHT22;19317;48.226;11.686;2023-05-02T05:16:59;8.90;99.90
32965;DHT22;19317;48.226;11.686;2023-05-02T05:21:49;8.90;99.90
32965;DHT22;19317;48.226;11.686;2023-05-02T05:26:40;8.90;99.90
32965;DHT22;19317;48.226;11.686;2023-05-02T05:31:30;9.00;99.90
32965;DHT22;19317;48.226;11.686;2023-05-02T05:36:21;9.10;99.90
32965;DHT22;19317;48.226;11.686;2023-05-02T05:41:11;9.10;99.90
32965;DHT22;19317;48.226;11.686;2023-05-02T05:46:02;9.10;99.90
32965;DHT22;19317;48.226;11.686;2023-05-02T05:50:52;9.20;99.90
32965;DHT22;19317;48.226;11.686;2023-05-02T05:55:43;9.10;99.90
32965;DHT22;19317;48.226;11.686;2023-05-02T06:00:34;9.20;99.90
32965;DHT22;19317;48.226;11.686;2023-05-02T06:05:24;9.20;99.90
32965;DHT22;19317;48.226;11.686;2023-05-02T06:10:15;9.30;99.90
32965;DHT22;19317;48.226;11.686;2023-05-02T06:15:06;9.40;99.90
32965;DHT22;19317;48.226;11.686;2023-05-02T06:19:56;9.50;99.90
32965;DHT22;19317;48.226;11.686;2023-05-02T06:24:47;9.50;99.90
32965;DHT22;19317;48.226;11.686;2023-05-02T06:29:37;9.70;99.90
32965;DHT22;19317;48.226;11.686;2023-05-02T06:34:27;9.70;99.90
32965;DHT22;19317;48.226;11.686;2023-05-02T06:39:20;9.90;99.90
32965;DHT22;19317;48.226;11.686;2023-05-02T06:44:11;9.90;99.90
32965;DHT22;19317;48.226;11.686;2023-05-02T06:49:01;10.10;99.90
32965;DHT22;19317;48.226;11.686;2023-05-02T06:53:52;10.10;99.90
32965;DHT22;19317;48.226;11.686;2023-05-02T06:58:42;10.10;99.90
32965;DHT22;19317;48.226;11.686;2023-05-02T07:03:33;10.10;99.90
32965;DHT22;19317;48.226;11.686;2023-05-02T07:08:23;10.20;99.90
32965;DHT22;19317;48.226;11.686;2023-05-02T07:13:13;10.30;99.90
32965;DHT22;19317;48.226;11.686;2023-05-02T07:18:04;10.40;99.90
32965;DHT22;19317;48.226;11.686;2023-05-02T07:22:54;10.50;99.90
32965;DHT22;19317;48.226;11.686;2023-05-02T07:27:45;10.70;99.90
32965;DHT22;19317;48.226;11.686;2023-05-02T07:32:35;10.70;99.90
32965;DHT22;19317;48.226;11.686;2023-05-02T07:37:26;10.90;99.90
32965;DHT22;19317;48.226;11.686;2023-05-02T07:42:16;10.80;99.90
32965;DHT22;19317;48.226;11.686;2023-05-02T07:47:07;10.80;99.90
32965;DHT22;19317;48.226;11.686;2023-05-02T07:51:58;10.90;99.90
32965;DHT22;19317;48.226;11.686;2023-05-02T07:56:48;11.00;99.90
32965;DHT22;19317;48.226;11.686;2023-05-02T08:01:39;11.10;99.90
32965;DHT22;19317;48.226;11.686;2023-05-02T08:06:30;11.00;99.90
32965;DHT22;19317;48.226;11.686;2023-05-02T08:11:21;11.10;99.90
32965;DHT22;19317;48.226;11.686;2023-05-02T08:16:11;11.40;99.90
32965;DHT22;19317;48.226;11.686;2023-05-02T08:21:01;11.50;99.90
32965;DHT22;19317;48.226;11.686;2023-05-02T08:25:53;11.60;99.90
32965;DHT22;19317;48.226;11.686;2023-05-02T08:30:43;11.80;99.90
32965;DHT22;19317;48.226;11.686;2023-05-02T08:35:33;11.90;99.90
32965;DHT22;19317;48.226;11.686;2023-05-02T08:40:24;11.90;99.90
32965;DHT22;19317;48.226;11.686;2023-05-02T08:45:14;12.00;99.90
32965;DHT22;19317;48.226;11.686;2023-05-02T08:50:05;11.80;99.90
32965;DHT22;19317;48.226;11.686;2023-05-02T08:54:57;11.90;99.90
32965;DHT22;19317;48.226;11.686;2023-05-02T08:59:48;12.10;99.90
32965;DHT22;19317;48.226;11.686;2023-05-02T09:04:40;12.20;99.90
32965;DHT22;19317;48.226;11.686;2023-05-02T09:09:32;12.30;99.90
32965;DHT22;19317;48.226;11.686;2023-05-02T09:14:23;12.30;99.90
32965;DHT22;19317;48.226;11.686;2023-05-02T09:19:23;12.60;99.90
32965;DHT22;19317;48.226;11.686;2023-05-02T09:24:18;12.70;99.90
32965;DHT22;19317;48.226;11.686;2023-05-02T09:29:09;12.80;99.90
32965;DHT22;19317;48.226;11.686;2023-05-02T09:34:15;12.80;99.90
32965;DHT22;19317;48.226;11.686;2023-05-02T09:39:13;13.00;99.90
32965;DHT22;19317;48.226;11.686;2023-05-02T09:44:09;13.20;99.90
32965;DHT22;19317;48.226;11.686;2023-05-02T09:48:59;13.20;99.90
32965;DHT22;19317;48.226;11.686;2023-05-02T09:53:50;13.30;99.90
32965;DHT22;19317;48.226;11.686;2023-05-02T09:58:41;13.20;99.90
32965;DHT22;19317;48.226;11.686;2023-05-02T10:03:36;13.20;99.90
32965;DHT22;19317;48.226;11.686;2023-05-02T10:08:27;13.10;99.90
32965;DHT22;19317;48.226;11.686;2023-05-02T10:13:19;13.10;99.90
32965;DHT22;19317;48.226;11.686;2023-05-02T10:18:16;13.10;99.90
32965;DHT22;19317;48.226;11.686;2023-05-02T10:23:11;13.10;99.90
32965;DHT22;19317;48.226;11.686;2023-05-02T10:28:02;12.90;99.90
32965;DHT22;19317;48.226;11.686;2023-05-02T10:32:53;12.90;99.90
32965;DHT22;19317;48.226;11.686;2023-05-02T10:37:44;12.90;99.90
32965;DHT22;19317;48.226;11.686;2023-05-02T10:42:41;13.00;99.90
32965;DHT22;19317;48.226;11.686;2023-05-02T10:47:32;13.10;99.90
32965;DHT22;19317;48.226;11.686;2023-05-02T10:52:25;13.10;99.90
32965;DHT22;19317;48.226;11.686;2023-05-02T10:57:16;13.20;99.90
32965;DHT22;19317;48.226;11.686;2023-05-02T11:12:04;12.80;99.90
32965;DHT22;19317;48.226;11.686;2023-05-02T11:21:47;13.00;99.90
32965;DHT22;19317;48.226;11.686;2023-05-02T11:26:38;12.20;99.90
32965;DHT22;19317;48.226;11.686;2023-05-02T11:36:33;13.10;99.90
32965;DHT22;19317;48.226;11.686;2023-05-02T11:41:40;13.30;99.90
32965;DHT22;19317;48.226;11.686;2023-05-02T11:46:31;13.80;99.90
32965;DHT22;19317;48.226;11.686;2023-05-02T11:51:22;13.40;99.90
32965;DHT22;19317;48.226;11.686;2023-05-02T11:56:12;13.40;99.90
32965;DHT22;19317;48.226;11.686;2023-05-02T12:01:14;13.60;99.90
32965;DHT22;19317;48.226;11.686;2023-05-02T12:06:15;13.60;99.90
32965;DHT22;19317;48.226;11.686;2023-05-02T12:11:05;13.40;99.90
32965;DHT22;19317;48.226;11.686;2023-05-02T12:15:56;13.60;99.90
32965;DHT22;19317;48.226;11.686;2023-05-02T12:20:47;13.50;99.90
32965;DHT22;19317;48.226;11.686;2023-05-02T12:25:41;13.80;99.90
32965;DHT22;19317;48.226;11.686;2023-05-02T12:30:32;13.80;99.90
32965;DHT22;19317;48.226;11.686;2023-05-02T12:35:22;14.20;99.90
32965;DHT22;19317;48.226;11.686;2023-05-02T12:40:16;14.40;99.90
32965;DHT22;19317;48.226;11.686;2023-05-02T12:45:16;14.60;99.90
32965;DHT22;19317;48.226;11.686;2023-05-02T12:50:06;14.50;99.90
32965;DHT22;19317;48.226;11.686;2023-05-02T12:55:17;14.70;99.90
32965;DHT22;19317;48.226;11.686;2023-05-02T13:00:08;14.70;99.90
32965;DHT22;19317;48.226;11.686;2023-05-02T13:04:58;14.50;99.90
32965;DHT22;19317;48.226;11.686;2023-05-02T13:09:49;14.40;99.90
32965;DHT22;19317;48.226;11.686;2023-05-02T13:14:39;14.20;99.90
32965;DHT22;19317;48.226;11.686;2023-05-02T13:19:30;14.10;99.90
32965;DHT22;19317;48.226;11.686;2023-05-02T13:24:20;14.00;99.90
32965;DHT22;19317;48.226;11.686;2023-05-02T13:29:10;13.90;99.90
32965;DHT22;19317;48.226;11.686;2023-05-02T13:34:02;13.60;99.90
32965;DHT22;19317;48.226;11.686;2023-05-02T13:38:53;13.60;99.90
32965;DHT22;19317;48.226;11.686;2023-05-02T13:43:43;13.70;99.90
32965;DHT22;19317;48.226;11.686;2023-05-02T13:48:34;13.00;99.90
32965;DHT22;19317;48.226;11.686;2023-05-02T13:53:24;12.80;99.90
32965;DHT22;19317;48.226;11.686;2023-05-02T13:58:15;12.70;99.90
32965;DHT22;19317;48.226;11.686;2023-05-02T14:03:05;12.80;99.90
32965;DHT22;19317;48.226;11.686;2023-05-02T14:07:56;12.80;99.90
32965;DHT22;19317;48.226;11.686;2023-05-02T14:12:46;12.10;99.90
32965;DHT22;19317;48.226;11.686;2023-05-02T14:17:36;12.00;99.90
32965;DHT22;19317;48.226;11.686;2023-05-02T14:22:27;11.70;99.90
32965;DHT22;19317;48.226;11.686;2023-05-02T14:27:17;11.70;99.90
32965;DHT22;19317;48.226;11.686;2023-05-02T14:32:08;11.40;99.90
32965;DHT22;19317;48.226;11.686;2023-05-02T14:36:58;11.40;99.90
32965;DHT22;19317;48.226;11.686;2023-05-02T14:41:49;11.40;99.90
32965;DHT22;19317;48.226;11.686;2023-05-02T14:46:39;11.30;99.90
32965;DHT22;19317;48.226;11.686;2023-05-02T14:51:29;11.20;99.90
32965;DHT22;19317;48.226;11.686;2023-05-02T14:56:20;11.50;99.90
32965;DHT22;19317;48.226;11.686;2023-05-02T15:01:15;11.30;99.90
32965;DHT22;19317;48.226;11.686;2023-05-02T15:06:05;11.50;99.90
32965;DHT22;19317;48.226;11.686;2023-05-02T15:10:56;11.80;99.90
32965;DHT22;19317;48.226;11.686;2023-05-02T15:15:46;12.50;99.90
32965;DHT22;19317;48.226;11.686;2023-05-02T15:20:37;13.30;99.90
32965;DHT22;19317;48.226;11.686;2023-05-02T15:25:28;13.50;99.90
32965;DHT22;19317;48.226;11.686;2023-05-02T15:30:18;14.40;99.90
32965;DHT22;19317;48.226;11.686;2023-05-02T15:35:09;14.00;99.90
32965;DHT22;19317;48.226;11.686;2023-05-02T15:39:59;14.20;99.90
32965;DHT22;19317;48.226;11.686;2023-05-02T15:44:49;14.00;99.90
32965;DHT22;19317;48.226;11.686;2023-05-02T15:49:40;14.30;99.90
32965;DHT22;19317;48.226;11.686;2023-05-02T15:54:30;13.80;99.90
32965;DHT22;19317;48.226;11.686;2023-05-02T15:59:21;13.80;99.90
32965;DHT22;19317;48.226;11.686;2023-05-02T16:04:11;13.50;99.90
32965;DHT22;19317;48.226;11.686;2023-05-02T16:09:02;13.30;99.90
32965;DHT22;19317;48.226;11.686;2023-05-02T16:13:53;13.50;99.90
32965;DHT22;19317;48.226;11.686;2023-05-02T16:18:43;13.40;99.90
32965;DHT22;19317;48.226;11.686;2023-05-02T16:23:34;13.40;99.90
32965;DHT22;19317;48.226;11.686;2023-05-02T16:28:24;13.10;99.90
32965;DHT22;19317;48.226;11.686;2023-05-02T16:33:15;12.80;99.90
32965;DHT22;19317;48.226;11.686;2023-05-02T16:38:05;12.10;99.90
32965;DHT22;19317;48.226;11.686;2023-05-02T16:42:56;11.90;99.90
32965;DHT22;19317;48.226;11.686;2023-05-02T16:47:46;11.90;99.90
32965;DHT22;19317;48.226;11.686;2023-05-02T16:52:36;12.50;99.90
32965;DHT22;19317;48.226;11.686;2023-05-02T16:57:27;11.70;99.90
32965;DHT22;19317;48.226;11.686;2023-05-02T17:02:18;11.40;99.90
32965;DHT22;19317;48.226;11.686;2023-05-02T17:07:09;11.30;99.90
32965;DHT22;19317;48.226;11.686;2023-05-02T17:11:59;11.40;99.90
32965;DHT22;19317;48.226;11.686;2023-05-02T17:16:50;11.50;99.90
32965;DHT22;19317;48.226;11.686;2023-05-02T17:21:40;11.70;99.90
32965;DHT22;19317;48.226;11.686;2023-05-02T17:26:31;11.60;99.90
32965;DHT22;19317;48.226;11.686;2023-05-02T17:31:21;11.50;99.90
32965;DHT22;19317;48.226;11.686;2023-05-02T17:36:12;11.50;99.90
32965;DHT22;19317;48.226;11.686;2023-05-02T17:41:02;11.60;99.90
32965;DHT22;19317;48.226;11.686;2023-05-02T17:45:53;11.90;99.90
32965;DHT22;19317;48.226;11.686;2023-05-02T17:50:43;11.40;99.90
32965;DHT22;19317;48.226;11.686;2023-05-02T17:55:37;11.40;99.90
32965;DHT22;19317;48.226;11.686;2023-05-02T18:00:27;11.30;99.90
32965;DHT22;19317;48.226;11.686;2023-05-02T18:05:18;11.50;99.90
32965;DHT22;19317;48.226;11.686;2023-05-02T18:10:08;11.70;99.90
32965;DHT22;19317;48.226;11.686;2023-05-02T18:14:59;12.00;99.90
32965;DHT22;19317;48.226;11.686;2023-05-02T18:19:49;12.20;99.90
32965;DHT22;19317;48.226;11.686;2023-05-02T18:24:40;12.30;99.90
32965;DHT22;19317;48.226;11.686;2023-05-02T18:29:34;12.20;99.90
32965;DHT22;19317;48.226;11.686;2023-05-02T18:34:24;12.20;99.90
32965;DHT22;19317;48.226;11.686;2023-05-02T18:39:15;12.10;99.90
32965;DHT22;19317;48.226;11.686;2023-05-02T18:44:05;12.50;99.90
32965;DHT22;19317;48.226;11.686;2023-05-02T18:48:56;12.80;99.90
32965;DHT22;19317;48.226;11.686;2023-05-02T18:53:46;12.60;99.90
32965;DHT22;19317;48.226;11.686;2023-05-02T18:58:37;11.60;99.90
32965;DHT22;19317;48.226;11.686;2023-05-02T19:03:27;11.20;99.90
32965;DHT22;19317;48.226;11.686;2023-05-02T19:08:18;11.20;99.90
32965;DHT22;19317;48.226;11.686;2023-05-02T19:13:08;11.70;99.90
32965;DHT22;19317;48.226;11.686;2023-05-02T19:17:58;11.50;99.90
32965;DHT22;19317;48.226;11.686;2023-05-02T19:22:49;11.70;99.90
32965;DHT22;19317;48.226;11.686;2023-05-02T19:27:41;11.70;99.90
32965;DHT22;19317;48.226;11.686;2023-05-02T19:32:31;11.10;99.90
32965;DHT22;19317;48.226;11.686;2023-05-02T19:37:22;11.30;99.90
32965;DHT22;19317;48.226;11.686;2023-05-02T19:42:12;11.40;99.90
32965;DHT22;19317;48.226;11.686;2023-05-02T19:47:03;11.40;99.90
32965;DHT22;19317;48.226;11.686;2023-05-02T19:51:53;11.40;99.90
32965;DHT22;19317;48.226;11.686;2023-05-02T19:56:44;11.30;99.90
32965;DHT22;19317;48.226;11.686;2023-05-02T20:01:34;11.00;99.90
32965;DHT22;19317;48.226;11.686;2023-05-02T20:06:25;11.20;99.90
32965;DHT22;19317;48.226;11.686;2023-05-02T20:11:15;11.20;99.90
32965;DHT22;19317;48.226;11.686;2023-05-02T20:16:06;11.20;99.90
32965;DHT22;19317;48.226;11.686;2023-05-02T20:20:56;10.40;99.90
32965;DHT22;19317;48.226;11.686;2023-05-02T20:25:47;9.80;99.90
32965;DHT22;19317;48.226;11.686;2023-05-02T20:30:37;10.00;99.90
32965;DHT22;19317;48.226;11.686;2023-05-02T20:35:27;10.50;99.90
32965;DHT22;19317;48.226;11.686;2023-05-02T20:40:18;10.70;99.90
32965;DHT22;19317;48.226;11.686;2023-05-02T20:45:09;10.80;99.90
32965;DHT22;19317;48.226;11.686;2023-05-02T20:50:00;10.70;99.90
32965;DHT22;19317;48.226;11.686;2023-05-02T20:54:53;10.70;99.90
32965;DHT22;19317;48.226;11.686;2023-05-02T20:59:44;10.10;99.90
32965;DHT22;19317;48.226;11.686;2023-05-02T21:04:35;10.10;99.90
32965;DHT22;19317;48.226;11.686;2023-05-02T21:09:25;10.30;99.90
32965;DHT22;19317;48.226;11.686;2023-05-02T21:14:16;10.30;99.90
32965;DHT22;19317;48.226;11.686;2023-05-02T21:19:06;10.30;99.90
32965;DHT22;19317;48.226;11.686;2023-05-02T21:23:56;10.10;99.90
32965;DHT22;19317;48.226;11.686;2023-05-02T21:28:47;10.20;99.90
32965;DHT22;19317;48.226;11.686;2023-05-02T21:33:37;9.30;99.90
32965;DHT22;19317;48.226;11.686;2023-05-02T21:38:28;9.70;99.90
32965;DHT22;19317;48.226;11.686;2023-05-02T21:43:18;9.80;99.90
32965;DHT22;19317;48.226;11.686;2023-05-02T21:48:09;9.90;99.90
32965;DHT22;19317;48.226;11.686;2023-05-02T21:52:59;9.50;99.90
32965;DHT22;19317;48.226;11.686;2023-05-02T21:57:50;9.20;99.90
32965;DHT22;19317;48.226;11.686;2023-05-02T22:02:40;9.10;99.90
32965;DHT22;19317;48.226;11.686;2023-05-02T22:07:31;9.50;99.90
32965;DHT22;19317;48.226;11.686;2023-05-02T22:12:21;8.70;99.90
32965;DHT22;19317;48.226;11.686;2023-05-02T22:17:12;8.90;99.90
32965;DHT22;19317;48.226;11.686;2023-05-02T22:22:02;9.40;99.90
32965;DHT22;19317;48.226;11.686;2023-05-02T22:26:53;9.40;99.90
32965;DHT22;19317;48.226;11.686;2023-05-02T22:31:43;9.10;99.90
32965;DHT22;19317;48.226;11.686;2023-05-02T22:36:34;8.80;99.90
32965;DHT22;19317;48.226;11.686;2023-05-02T22:41:24;9.00;99.90
32965;DHT22;19317;48.226;11.686;2023-05-02T22:46:15;9.30;99.90
32965;DHT22;19317;48.226;11.686;2023-05-02T22:51:05;8.90;99.90
32965;DHT22;19317;48.226;11.686;2023-05-02T22:55:56;8.40;99.90
32965;DHT22;19317;48.226;11.686;2023-05-02T23:00:46;8.50;99.90
32965;DHT22;19317;48.226;11.686;2023-05-02T23:05:37;8.60;99.90
32965;DHT22;19317;48.226;11.686;2023-05-02T23:10:27;8.90;99.90
32965;DHT22;19317;48.226;11.686;2023-05-02T23:15:18;8.80;99.90
32965;DHT22;19317;48.226;11.686;2023-05-02T23:20:09;8.50;99.90
32965;DHT22;19317;48.226;11.686;2023-05-02T23:24:59;7.90;99.90
32965;DHT22;19317;48.226;11.686;2023-05-02T23:29:50;8.30;99.90
32965;DHT22;19317;48.226;11.686;2023-05-02T23:34:40;8.40;99.90
32965;DHT22;19317;48.226;11.686;2023-05-02T23:39:31;8.30;99.90
32965;DHT22;19317;48.226;11.686;2023-05-02T23:44:21;8.10;99.90
32965;DHT22;19317;48.226;11.686;2023-05-02T23:49:12;8.50;99.90
32965;DHT22;19317;48.226;11.686;2023-05-02T23:54:02;8.70;99.90
32965;DHT22;19317;48.226;11.686;2023-05-02T23:58:53;8.60;99.90
